Airfield :
LOGIN :

Register | Disclaimer

   EN    FR    IT 

 










Legend :    VFR   Marginal VFR   IFR   Intensive IFR   Very Intensive IFR
Visi :
Ceiling :
>= 8 km
>= 3000ft
5 to 8 km
1000 to 3000 ft
1500m to 5 km
500 to 1000 ft
800 to 1500m
200 to 500 ft
< 800m
< 200 ft
Symbols :   Thunderstorms  Fog  Heavy snow  Heavy precipitations  Wind > 20 kt
SIGMETs :     Misc.  Thunderstorms  Icing  Turbulence  Mountain Waves  Volcanic Ashes







- Airport Elevation : 161 ft
- IATA code : PMF


LIMP - Parma

CURRENT METAR :
  • 161450Z 30005KT 2000 BR BKN030 06/04 Q1007

EXPIRED METARs :
  • 161350Z 30004KT 240V310 2000 BR OVC030 06/04 Q1008
  • 161250Z 30004KT 270V330 2000 BR OVC010 06/04 Q1009

TAF TAF LIMP
Valid from the 16 at 12:00 until the 17 at 12:00 UTC


161100Z 1612/1712 VRB05KT 2500 BR BKN010
BECMG 1612/1614 6000 SCT040
BECMG 1707/1709 31015KT
No reported NOTAMs for that airfield.
3 SIGMETs reported for the Milano FIR (LIMM) :
 
Severe turbulence
LIMM SIGMET 8 VALID 161400/161600 LIIP
LIMM MILANO FIR SEV TURB OBS WI N4359 E01016 - N4338 E01038 - N4335 E01017 - N4310 E00943 - N4351 E00907 - N4359 E01016 FL100/130 STNR NC=
Severe turbulence
LIMM SIGMET 7 VALID 161215/161615 LIIP
LIMM MILANO FIR SEV TURB FCST WI N4626 E00825 - N4547 E00907 - N4429 E00841 - N4347 E00729 - N4505 E00629 - N4626 E00825 FL030/150 STNR NC=
Severe turbulence
LIMM SIGMET 6 VALID 161215/161615 LIIP
LIMM MILANO FIR SEV TURB FCST ENTIRE FIR FL150/250 STNR NC=



MET'MAP, your aeronautical weather chart ! - Copyright ORBIFLY December 2007 - Disclaimer

ORBIFLY MET'MAP TEAM :

Programming & Development : Alexandra Zaïnal
Concept & Development : Baudouin d'Aumeries
Co-Development & Prog : Marc-Olivier Méhu
Technical & hardware support : Manuel Goepfert

Contact : metmap@orbifly.com




SOURCES & CREDITS :

   NOAA